sensor_id;sensor_type;location;lat;lon;timestamp;P1;durP1;ratioP1;P2;durP2;ratioP2
78346;SDS011;67803;41.330;69.282;2024-01-27T00:01:39;93.88;;;44.95;;
78346;SDS011;67803;41.330;69.282;2024-01-27T00:04:09;89.07;;;44.00;;
78346;SDS011;67803;41.330;69.282;2024-01-27T00:06:40;93.55;;;44.90;;
78346;SDS011;67803;41.330;69.282;2024-01-27T00:09:10;94.50;;;48.63;;
78346;SDS011;67803;41.330;69.282;2024-01-27T00:11:41;92.50;;;44.85;;
78346;SDS011;67803;41.330;69.282;2024-01-27T00:14:11;94.30;;;46.42;;
78346;SDS011;67803;41.330;69.282;2024-01-27T00:16:42;101.50;;;50.28;;
78346;SDS011;67803;41.330;69.282;2024-01-27T00:19:12;95.32;;;46.55;;
78346;SDS011;67803;41.330;69.282;2024-01-27T00:21:43;99.63;;;47.45;;
78346;SDS011;67803;41.330;69.282;2024-01-27T00:24:14;99.53;;;48.63;;
78346;SDS011;67803;41.330;69.282;2024-01-27T00:26:44;95.30;;;46.92;;
78346;SDS011;67803;41.330;69.282;2024-01-27T00:29:15;96.13;;;47.85;;
78346;SDS011;67803;41.330;69.282;2024-01-27T00:31:45;101.15;;;49.90;;
78346;SDS011;67803;41.330;69.282;2024-01-27T00:34:16;105.90;;;50.92;;
78346;SDS011;67803;41.330;69.282;2024-01-27T00:36:47;106.93;;;50.75;;
78346;SDS011;67803;41.330;69.282;2024-01-27T00:39:20;107.90;;;50.03;;
78346;SDS011;67803;41.330;69.282;2024-01-27T00:41:51;104.13;;;49.05;;
78346;SDS011;67803;41.330;69.282;2024-01-27T00:44:22;100.93;;;47.22;;
78346;SDS011;67803;41.330;69.282;2024-01-27T00:46:53;99.05;;;49.00;;
78346;SDS011;67803;41.330;69.282;2024-01-27T00:49:24;101.25;;;47.83;;
78346;SDS011;67803;41.330;69.282;2024-01-27T00:51:54;93.18;;;46.60;;
78346;SDS011;67803;41.330;69.282;2024-01-27T00:54:25;94.45;;;47.17;;
78346;SDS011;67803;41.330;69.282;2024-01-27T00:56:55;97.93;;;46.38;;
78346;SDS011;67803;41.330;69.282;2024-01-27T00:59:26;94.90;;;46.85;;
78346;SDS011;67803;41.330;69.282;2024-01-27T01:01:57;94.78;;;47.17;;
78346;SDS011;67803;41.330;69.282;2024-01-27T01:04:27;95.93;;;46.28;;
78346;SDS011;67803;41.330;69.282;2024-01-27T01:06:58;99.72;;;47.58;;
78346;SDS011;67803;41.330;69.282;2024-01-27T01:09:29;89.28;;;45.78;;
78346;SDS011;67803;41.330;69.282;2024-01-27T01:11:59;97.15;;;47.72;;
78346;SDS011;67803;41.330;69.282;2024-01-27T01:14:30;95.68;;;48.00;;
78346;SDS011;67803;41.330;69.282;2024-01-27T01:17:00;90.05;;;43.42;;
78346;SDS011;67803;41.330;69.282;2024-01-27T01:19:31;93.35;;;47.03;;
78346;SDS011;67803;41.330;69.282;2024-01-27T01:22:02;95.80;;;44.72;;
78346;SDS011;67803;41.330;69.282;2024-01-27T01:24:32;88.38;;;46.08;;
78346;SDS011;67803;41.330;69.282;2024-01-27T01:27:03;87.30;;;43.75;;
78346;SDS011;67803;41.330;69.282;2024-01-27T01:29:34;85.70;;;41.72;;
78346;SDS011;67803;41.330;69.282;2024-01-27T01:32:05;78.07;;;41.30;;
78346;SDS011;67803;41.330;69.282;2024-01-27T01:34:36;85.35;;;40.13;;
78346;SDS011;67803;41.330;69.282;2024-01-27T01:37:06;81.50;;;42.03;;
78346;SDS011;67803;41.330;69.282;2024-01-27T01:39:37;78.82;;;39.13;;
78346;SDS011;67803;41.330;69.282;2024-01-27T01:42:07;82.55;;;40.53;;
78346;SDS011;67803;41.330;69.282;2024-01-27T01:44:38;82.38;;;41.55;;
78346;SDS011;67803;41.330;69.282;2024-01-27T01:47:08;79.38;;;40.70;;
78346;SDS011;67803;41.330;69.282;2024-01-27T01:49:39;75.40;;;41.03;;
78346;SDS011;67803;41.330;69.282;2024-01-27T01:52:10;78.10;;;37.88;;
78346;SDS011;67803;41.330;69.282;2024-01-27T01:54:41;73.82;;;37.38;;
78346;SDS011;67803;41.330;69.282;2024-01-27T01:57:11;79.13;;;37.80;;
78346;SDS011;67803;41.330;69.282;2024-01-27T01:59:42;73.97;;;37.63;;
78346;SDS011;67803;41.330;69.282;2024-01-27T02:02:13;79.43;;;39.22;;
78346;SDS011;67803;41.330;69.282;2024-01-27T02:04:44;82.85;;;40.30;;
78346;SDS011;67803;41.330;69.282;2024-01-27T02:07:16;80.50;;;40.63;;
78346;SDS011;67803;41.330;69.282;2024-01-27T02:09:46;76.55;;;37.53;;
78346;SDS011;67803;41.330;69.282;2024-01-27T02:12:17;78.05;;;39.25;;
78346;SDS011;67803;41.330;69.282;2024-01-27T02:14:47;76.20;;;38.05;;
78346;SDS011;67803;41.330;69.282;2024-01-27T02:17:18;80.88;;;40.20;;
78346;SDS011;67803;41.330;69.282;2024-01-27T02:19:48;91.80;;;41.65;;
78346;SDS011;67803;41.330;69.282;2024-01-27T02:22:19;85.53;;;42.67;;
78346;SDS011;67803;41.330;69.282;2024-01-27T02:24:50;85.10;;;41.45;;
78346;SDS011;67803;41.330;69.282;2024-01-27T02:27:20;86.47;;;41.50;;
78346;SDS011;67803;41.330;69.282;2024-01-27T02:29:51;90.47;;;42.42;;
78346;SDS011;67803;41.330;69.282;2024-01-27T02:32:21;86.05;;;42.03;;
78346;SDS011;67803;41.330;69.282;2024-01-27T02:34:52;82.30;;;38.55;;
78346;SDS011;67803;41.330;69.282;2024-01-27T02:37:22;85.57;;;41.53;;
78346;SDS011;67803;41.330;69.282;2024-01-27T02:39:53;90.50;;;41.33;;
78346;SDS011;67803;41.330;69.282;2024-01-27T02:42:23;85.15;;;40.47;;
78346;SDS011;67803;41.330;69.282;2024-01-27T02:44:55;89.10;;;40.35;;
78346;SDS011;67803;41.330;69.282;2024-01-27T02:47:25;83.80;;;39.30;;
78346;SDS011;67803;41.330;69.282;2024-01-27T02:49:56;92.38;;;43.33;;
78346;SDS011;67803;41.330;69.282;2024-01-27T02:52:26;98.45;;;43.35;;
78346;SDS011;67803;41.330;69.282;2024-01-27T02:54:57;101.03;;;44.20;;
78346;SDS011;67803;41.330;69.282;2024-01-27T02:57:28;104.57;;;44.05;;
78346;SDS011;67803;41.330;69.282;2024-01-27T02:59:58;104.88;;;46.45;;
78346;SDS011;67803;41.330;69.282;2024-01-27T03:02:29;113.03;;;45.97;;
78346;SDS011;67803;41.330;69.282;2024-01-27T03:05:00;106.00;;;43.38;;
78346;SDS011;67803;41.330;69.282;2024-01-27T03:07:30;110.63;;;46.88;;
78346;SDS011;67803;41.330;69.282;2024-01-27T03:10:01;127.97;;;47.45;;
78346;SDS011;67803;41.330;69.282;2024-01-27T03:12:31;129.00;;;44.15;;
78346;SDS011;67803;41.330;69.282;2024-01-27T03:15:03;138.10;;;45.53;;
78346;SDS011;67803;41.330;69.282;2024-01-27T03:17:33;130.40;;;43.95;;
78346;SDS011;67803;41.330;69.282;2024-01-27T03:20:04;133.13;;;44.90;;
78346;SDS011;67803;41.330;69.282;2024-01-27T03:22:35;129.75;;;42.50;;
78346;SDS011;67803;41.330;69.282;2024-01-27T03:25:06;122.78;;;41.25;;
78346;SDS011;67803;41.330;69.282;2024-01-27T03:27:37;127.10;;;41.15;;
78346;SDS011;67803;41.330;69.282;2024-01-27T03:30:07;109.72;;;38.25;;
78346;SDS011;67803;41.330;69.282;2024-01-27T03:32:40;106.75;;;35.60;;
78346;SDS011;67803;41.330;69.282;2024-01-27T03:35:10;103.63;;;36.72;;
78346;SDS011;67803;41.330;69.282;2024-01-27T03:37:42;101.95;;;33.33;;
78346;SDS011;67803;41.330;69.282;2024-01-27T03:40:13;107.68;;;34.58;;
78346;SDS011;67803;41.330;69.282;2024-01-27T03:42:43;109.75;;;34.83;;
78346;SDS011;67803;41.330;69.282;2024-01-27T03:45:14;97.38;;;33.10;;
78346;SDS011;67803;41.330;69.282;2024-01-27T03:47:45;105.07;;;33.88;;
78346;SDS011;67803;41.330;69.282;2024-01-27T03:50:15;98.28;;;34.55;;
78346;SDS011;67803;41.330;69.282;2024-01-27T03:52:46;115.15;;;35.72;;
78346;SDS011;67803;41.330;69.282;2024-01-27T03:55:16;107.93;;;35.13;;
78346;SDS011;67803;41.330;69.282;2024-01-27T03:57:48;100.05;;;33.55;;
78346;SDS011;67803;41.330;69.282;2024-01-27T04:00:19;99.53;;;33.55;;
78346;SDS011;67803;41.330;69.282;2024-01-27T04:02:50;97.15;;;32.83;;
78346;SDS011;67803;41.330;69.282;2024-01-27T04:05:20;101.90;;;33.50;;
78346;SDS011;67803;41.330;69.282;2024-01-27T04:07:51;95.70;;;35.00;;
78346;SDS011;67803;41.330;69.282;2024-01-27T04:10:22;99.97;;;33.70;;
78346;SDS011;67803;41.330;69.282;2024-01-27T04:12:52;93.15;;;32.78;;
78346;SDS011;67803;41.330;69.282;2024-01-27T04:15:23;97.45;;;33.08;;
78346;SDS011;67803;41.330;69.282;2024-01-27T04:17:53;94.00;;;34.83;;
78346;SDS011;67803;41.330;69.282;2024-01-27T04:20:24;80.05;;;29.13;;
78346;SDS011;67803;41.330;69.282;2024-01-27T04:22:55;96.65;;;33.38;;
78346;SDS011;67803;41.330;69.282;2024-01-27T04:25:25;94.15;;;31.80;;
78346;SDS011;67803;41.330;69.282;2024-01-27T04:27:56;97.28;;;33.58;;
78346;SDS011;67803;41.330;69.282;2024-01-27T04:30:26;101.13;;;33.38;;
78346;SDS011;67803;41.330;69.282;2024-01-27T04:32:57;93.93;;;34.28;;
78346;SDS011;67803;41.330;69.282;2024-01-27T04:35:28;97.13;;;36.00;;
78346;SDS011;67803;41.330;69.282;2024-01-27T04:37:58;94.20;;;33.35;;
78346;SDS011;67803;41.330;69.282;2024-01-27T04:40:30;91.15;;;33.85;;
78346;SDS011;67803;41.330;69.282;2024-01-27T04:43:01;92.10;;;33.00;;
78346;SDS011;67803;41.330;69.282;2024-01-27T04:45:33;81.57;;;29.77;;
78346;SDS011;67803;41.330;69.282;2024-01-27T04:48:03;83.95;;;31.10;;
78346;SDS011;67803;41.330;69.282;2024-01-27T04:50:34;90.93;;;33.35;;
78346;SDS011;67803;41.330;69.282;2024-01-27T04:53:05;106.78;;;38.80;;
78346;SDS011;67803;41.330;69.282;2024-01-27T04:55:35;108.88;;;38.35;;
78346;SDS011;67803;41.330;69.282;2024-01-27T04:58:06;164.70;;;41.28;;
78346;SDS011;67803;41.330;69.282;2024-01-27T05:00:37;82.40;;;30.98;;
78346;SDS011;67803;41.330;69.282;2024-01-27T05:03:07;82.30;;;31.98;;
78346;SDS011;67803;41.330;69.282;2024-01-27T05:05:43;73.68;;;30.95;;
78346;SDS011;67803;41.330;69.282;2024-01-27T05:08:14;68.40;;;27.08;;
78346;SDS011;67803;41.330;69.282;2024-01-27T05:10:45;70.63;;;28.27;;
78346;SDS011;67803;41.330;69.282;2024-01-27T05:13:15;66.78;;;29.42;;
78346;SDS011;67803;41.330;69.282;2024-01-27T05:15:46;68.45;;;29.95;;
78346;SDS011;67803;41.330;69.282;2024-01-27T05:18:16;59.40;;;26.63;;
78346;SDS011;67803;41.330;69.282;2024-01-27T05:20:47;56.00;;;25.45;;
78346;SDS011;67803;41.330;69.282;2024-01-27T05:23:18;59.95;;;26.17;;
78346;SDS011;67803;41.330;69.282;2024-01-27T05:25:49;56.60;;;25.30;;
78346;SDS011;67803;41.330;69.282;2024-01-27T05:28:19;64.28;;;27.25;;
78346;SDS011;67803;41.330;69.282;2024-01-27T05:30:50;58.47;;;26.38;;
78346;SDS011;67803;41.330;69.282;2024-01-27T05:33:21;60.88;;;24.73;;
78346;SDS011;67803;41.330;69.282;2024-01-27T05:35:52;57.55;;;26.80;;
78346;SDS011;67803;41.330;69.282;2024-01-27T05:38:22;61.85;;;27.02;;
78346;SDS011;67803;41.330;69.282;2024-01-27T05:40:53;60.70;;;27.20;;
78346;SDS011;67803;41.330;69.282;2024-01-27T05:43:23;58.97;;;25.42;;
78346;SDS011;67803;41.330;69.282;2024-01-27T05:45:54;55.95;;;26.80;;
78346;SDS011;67803;41.330;69.282;2024-01-27T05:48:25;53.38;;;27.17;;
78346;SDS011;67803;41.330;69.282;2024-01-27T05:50:59;65.25;;;26.98;;
78346;SDS011;67803;41.330;69.282;2024-01-27T05:53:29;69.57;;;29.33;;
78346;SDS011;67803;41.330;69.282;2024-01-27T05:56:00;59.20;;;26.38;;
78346;SDS011;67803;41.330;69.282;2024-01-27T05:58:31;59.55;;;27.73;;
78346;SDS011;67803;41.330;69.282;2024-01-27T06:01:01;54.72;;;24.77;;
78346;SDS011;67803;41.330;69.282;2024-01-27T06:03:32;64.32;;;26.30;;
78346;SDS011;67803;41.330;69.282;2024-01-27T06:06:02;62.00;;;25.45;;
78346;SDS011;67803;41.330;69.282;2024-01-27T06:08:33;62.72;;;27.05;;
78346;SDS011;67803;41.330;69.282;2024-01-27T06:11:04;65.97;;;26.20;;
78346;SDS011;67803;41.330;69.282;2024-01-27T06:13:34;65.22;;;27.95;;
78346;SDS011;67803;41.330;69.282;2024-01-27T06:16:08;62.25;;;28.52;;
78346;SDS011;67803;41.330;69.282;2024-01-27T06:18:41;60.35;;;28.63;;
78346;SDS011;67803;41.330;69.282;2024-01-27T06:21:12;69.03;;;28.77;;
78346;SDS011;67803;41.330;69.282;2024-01-27T06:23:43;69.32;;;27.70;;
78346;SDS011;67803;41.330;69.282;2024-01-27T06:26:14;67.53;;;28.13;;
78346;SDS011;67803;41.330;69.282;2024-01-27T06:28:44;75.85;;;29.10;;
78346;SDS011;67803;41.330;69.282;2024-01-27T06:31:15;76.80;;;30.02;;
78346;SDS011;67803;41.330;69.282;2024-01-27T06:33:46;66.93;;;29.48;;
78346;SDS011;67803;41.330;69.282;2024-01-27T06:36:16;74.65;;;29.35;;
78346;SDS011;67803;41.330;69.282;2024-01-27T06:38:47;85.13;;;29.70;;
78346;SDS011;67803;41.330;69.282;2024-01-27T06:41:18;64.63;;;26.45;;
78346;SDS011;67803;41.330;69.282;2024-01-27T06:43:48;66.05;;;26.65;;
78346;SDS011;67803;41.330;69.282;2024-01-27T06:46:19;62.20;;;26.67;;
78346;SDS011;67803;41.330;69.282;2024-01-27T06:48:50;62.55;;;26.17;;
78346;SDS011;67803;41.330;69.282;2024-01-27T06:51:21;57.90;;;24.48;;
78346;SDS011;67803;41.330;69.282;2024-01-27T06:53:51;62.83;;;24.58;;
78346;SDS011;67803;41.330;69.282;2024-01-27T06:56:22;59.08;;;24.55;;
78346;SDS011;67803;41.330;69.282;2024-01-27T06:58:52;51.10;;;22.27;;
78346;SDS011;67803;41.330;69.282;2024-01-27T07:01:23;56.38;;;21.85;;
78346;SDS011;67803;41.330;69.282;2024-01-27T07:03:54;54.22;;;21.67;;
78346;SDS011;67803;41.330;69.282;2024-01-27T07:06:25;54.70;;;22.35;;
78346;SDS011;67803;41.330;69.282;2024-01-27T07:08:55;57.60;;;24.88;;
78346;SDS011;67803;41.330;69.282;2024-01-27T07:11:26;53.63;;;21.20;;
78346;SDS011;67803;41.330;69.282;2024-01-27T07:13:57;49.38;;;21.52;;
78346;SDS011;67803;41.330;69.282;2024-01-27T07:16:28;51.97;;;20.13;;
78346;SDS011;67803;41.330;69.282;2024-01-27T07:18:59;48.88;;;22.48;;
78346;SDS011;67803;41.330;69.282;2024-01-27T07:21:29;47.55;;;19.90;;
78346;SDS011;67803;41.330;69.282;2024-01-27T07:24:01;56.15;;;20.65;;
78346;SDS011;67803;41.330;69.282;2024-01-27T07:26:33;57.25;;;22.25;;
78346;SDS011;67803;41.330;69.282;2024-01-27T07:29:04;61.30;;;23.50;;
78346;SDS011;67803;41.330;69.282;2024-01-27T07:31:34;53.63;;;21.65;;
78346;SDS011;67803;41.330;69.282;2024-01-27T07:34:05;54.28;;;21.55;;
78346;SDS011;67803;41.330;69.282;2024-01-27T07:36:36;57.90;;;23.35;;
78346;SDS011;67803;41.330;69.282;2024-01-27T07:39:07;60.90;;;23.02;;
78346;SDS011;67803;41.330;69.282;2024-01-27T07:41:37;63.55;;;23.23;;
78346;SDS011;67803;41.330;69.282;2024-01-27T07:44:12;57.10;;;22.13;;
78346;SDS011;67803;41.330;69.282;2024-01-27T07:46:43;57.80;;;22.35;;
78346;SDS011;67803;41.330;69.282;2024-01-27T07:49:14;54.97;;;21.88;;
78346;SDS011;67803;41.330;69.282;2024-01-27T07:51:45;56.30;;;22.70;;
78346;SDS011;67803;41.330;69.282;2024-01-27T07:54:16;49.72;;;22.77;;
78346;SDS011;67803;41.330;69.282;2024-01-27T07:56:46;57.67;;;22.25;;
78346;SDS011;67803;41.330;69.282;2024-01-27T07:59:17;57.15;;;22.70;;
78346;SDS011;67803;41.330;69.282;2024-01-27T08:01:48;58.45;;;22.85;;
78346;SDS011;67803;41.330;69.282;2024-01-27T08:04:19;68.70;;;27.35;;
78346;SDS011;67803;41.330;69.282;2024-01-27T08:06:50;62.03;;;25.50;;
78346;SDS011;67803;41.330;69.282;2024-01-27T08:09:21;69.57;;;26.48;;
78346;SDS011;67803;41.330;69.282;2024-01-27T08:11:52;68.45;;;27.15;;
78346;SDS011;67803;41.330;69.282;2024-01-27T08:14:22;68.75;;;27.45;;
78346;SDS011;67803;41.330;69.282;2024-01-27T08:16:53;70.97;;;29.15;;
78346;SDS011;67803;41.330;69.282;2024-01-27T08:19:24;65.15;;;27.58;;
78346;SDS011;67803;41.330;69.282;2024-01-27T08:21:54;81.68;;;30.27;;
78346;SDS011;67803;41.330;69.282;2024-01-27T08:24:25;70.88;;;27.67;;
78346;SDS011;67803;41.330;69.282;2024-01-27T08:26:55;73.50;;;31.02;;
78346;SDS011;67803;41.330;69.282;2024-01-27T08:29:26;73.47;;;28.95;;
78346;SDS011;67803;41.330;69.282;2024-01-27T08:31:57;69.35;;;28.45;;
78346;SDS011;67803;41.330;69.282;2024-01-27T08:34:27;110.88;;;49.95;;
78346;SDS011;67803;41.330;69.282;2024-01-27T08:37:00;133.15;;;65.82;;
78346;SDS011;67803;41.330;69.282;2024-01-27T08:39:30;148.65;;;71.30;;
78346;SDS011;67803;41.330;69.282;2024-01-27T08:42:01;141.07;;;65.80;;
78346;SDS011;67803;41.330;69.282;2024-01-27T08:44:31;138.13;;;67.72;;
78346;SDS011;67803;41.330;69.282;2024-01-27T08:47:02;130.50;;;63.33;;
78346;SDS011;67803;41.330;69.282;2024-01-27T08:49:33;133.13;;;61.00;;
78346;SDS011;67803;41.330;69.282;2024-01-27T08:52:03;133.48;;;62.28;;
78346;SDS011;67803;41.330;69.282;2024-01-27T08:54:34;133.93;;;62.10;;
78346;SDS011;67803;41.330;69.282;2024-01-27T08:57:04;134.35;;;61.63;;
78346;SDS011;67803;41.330;69.282;2024-01-27T08:59:35;126.28;;;61.55;;
78346;SDS011;67803;41.330;69.282;2024-01-27T09:02:06;127.10;;;59.10;;
78346;SDS011;67803;41.330;69.282;2024-01-27T09:04:36;125.97;;;54.20;;
78346;SDS011;67803;41.330;69.282;2024-01-27T09:07:07;122.38;;;51.72;;
78346;SDS011;67803;41.330;69.282;2024-01-27T09:09:37;113.38;;;52.28;;
78346;SDS011;67803;41.330;69.282;2024-01-27T09:12:11;107.70;;;48.50;;
78346;SDS011;67803;41.330;69.282;2024-01-27T09:14:42;111.05;;;50.38;;
78346;SDS011;67803;41.330;69.282;2024-01-27T09:17:12;126.10;;;52.40;;
78346;SDS011;67803;41.330;69.282;2024-01-27T09:19:43;119.25;;;54.67;;
78346;SDS011;67803;41.330;69.282;2024-01-27T09:22:13;124.47;;;55.88;;
78346;SDS011;67803;41.330;69.282;2024-01-27T09:24:44;115.63;;;49.22;;
78346;SDS011;67803;41.330;69.282;2024-01-27T09:27:14;117.57;;;51.47;;
78346;SDS011;67803;41.330;69.282;2024-01-27T09:29:45;111.20;;;49.50;;
78346;SDS011;67803;41.330;69.282;2024-01-27T09:32:16;102.25;;;47.88;;
78346;SDS011;67803;41.330;69.282;2024-01-27T09:34:46;90.50;;;40.55;;
78346;SDS011;67803;41.330;69.282;2024-01-27T09:37:17;89.38;;;35.17;;
78346;SDS011;67803;41.330;69.282;2024-01-27T09:39:48;92.72;;;40.00;;
78346;SDS011;67803;41.330;69.282;2024-01-27T09:42:20;96.97;;;46.83;;
78346;SDS011;67803;41.330;69.282;2024-01-27T09:44:51;103.22;;;46.28;;
78346;SDS011;67803;41.330;69.282;2024-01-27T09:47:23;111.80;;;50.72;;
78346;SDS011;67803;41.330;69.282;2024-01-27T09:49:53;120.03;;;54.38;;
78346;SDS011;67803;41.330;69.282;2024-01-27T09:52:24;115.07;;;49.97;;
78346;SDS011;67803;41.330;69.282;2024-01-27T09:54:54;93.13;;;40.13;;
78346;SDS011;67803;41.330;69.282;2024-01-27T09:57:25;80.88;;;32.30;;
78346;SDS011;67803;41.330;69.282;2024-01-27T09:59:56;68.43;;;28.40;;
78346;SDS011;67803;41.330;69.282;2024-01-27T10:02:27;68.78;;;27.73;;
78346;SDS011;67803;41.330;69.282;2024-01-27T10:04:59;63.65;;;28.42;;
78346;SDS011;67803;41.330;69.282;2024-01-27T10:07:31;70.50;;;27.58;;
78346;SDS011;67803;41.330;69.282;2024-01-27T10:10:02;71.40;;;28.92;;
78346;SDS011;67803;41.330;69.282;2024-01-27T10:12:33;69.55;;;28.63;;
78346;SDS011;67803;41.330;69.282;2024-01-27T10:15:07;67.43;;;29.10;;
78346;SDS011;67803;41.330;69.282;2024-01-27T10:17:48;63.90;;;27.48;;
78346;SDS011;67803;41.330;69.282;2024-01-27T10:20:19;75.07;;;27.92;;
78346;SDS011;67803;41.330;69.282;2024-01-27T10:22:49;65.95;;;28.17;;
78346;SDS011;67803;41.330;69.282;2024-01-27T10:25:20;66.70;;;27.67;;
78346;SDS011;67803;41.330;69.282;2024-01-27T10:27:55;70.13;;;29.50;;
78346;SDS011;67803;41.330;69.282;2024-01-27T10:30:25;74.40;;;32.35;;
78346;SDS011;67803;41.330;69.282;2024-01-27T10:32:56;90.63;;;39.97;;
78346;SDS011;67803;41.330;69.282;2024-01-27T10:35:27;101.07;;;51.22;;
78346;SDS011;67803;41.330;69.282;2024-01-27T10:37:58;102.40;;;49.95;;
78346;SDS011;67803;41.330;69.282;2024-01-27T10:40:28;106.38;;;51.60;;
78346;SDS011;67803;41.330;69.282;2024-01-27T10:43:03;116.40;;;59.58;;
78346;SDS011;67803;41.330;69.282;2024-01-27T10:45:37;114.07;;;58.15;;
78346;SDS011;67803;41.330;69.282;2024-01-27T10:48:09;114.53;;;59.10;;
78346;SDS011;67803;41.330;69.282;2024-01-27T10:50:41;124.13;;;66.93;;
78346;SDS011;67803;41.330;69.282;2024-01-27T10:53:23;111.22;;;62.83;;
78346;SDS011;67803;41.330;69.282;2024-01-27T10:55:54;117.15;;;60.65;;
78346;SDS011;67803;41.330;69.282;2024-01-27T10:58:27;127.47;;;60.92;;
78346;SDS011;67803;41.330;69.282;2024-01-27T11:01:00;126.60;;;63.05;;
78346;SDS011;67803;41.330;69.282;2024-01-27T11:03:32;123.28;;;66.80;;
78346;SDS011;67803;41.330;69.282;2024-01-27T11:06:03;124.20;;;63.53;;
78346;SDS011;67803;41.330;69.282;2024-01-27T11:08:34;120.47;;;63.00;;
78346;SDS011;67803;41.330;69.282;2024-01-27T11:11:05;127.18;;;61.35;;
78346;SDS011;67803;41.330;69.282;2024-01-27T11:13:35;116.50;;;60.05;;
78346;SDS011;67803;41.330;69.282;2024-01-27T11:16:14;118.38;;;59.45;;
78346;SDS011;67803;41.330;69.282;2024-01-27T11:18:47;125.20;;;61.08;;
78346;SDS011;67803;41.330;69.282;2024-01-27T11:21:18;122.25;;;62.25;;
78346;SDS011;67803;41.330;69.282;2024-01-27T11:23:49;119.68;;;61.63;;
78346;SDS011;67803;41.330;69.282;2024-01-27T11:26:21;122.95;;;62.33;;
78346;SDS011;67803;41.330;69.282;2024-01-27T11:28:52;119.20;;;64.00;;
78346;SDS011;67803;41.330;69.282;2024-01-27T11:31:23;131.05;;;66.88;;
78346;SDS011;67803;41.330;69.282;2024-01-27T11:33:53;121.63;;;65.05;;
78346;SDS011;67803;41.330;69.282;2024-01-27T11:36:24;128.63;;;67.07;;
78346;SDS011;67803;41.330;69.282;2024-01-27T11:38:57;127.57;;;66.43;;
78346;SDS011;67803;41.330;69.282;2024-01-27T11:41:29;131.73;;;65.00;;
78346;SDS011;67803;41.330;69.282;2024-01-27T11:44:00;127.15;;;67.63;;
78346;SDS011;67803;41.330;69.282;2024-01-27T11:46:31;134.18;;;69.07;;
78346;SDS011;67803;41.330;69.282;2024-01-27T11:49:01;132.55;;;67.07;;
78346;SDS011;67803;41.330;69.282;2024-01-27T11:51:34;134.57;;;69.20;;
78346;SDS011;67803;41.330;69.282;2024-01-27T11:54:06;125.18;;;66.43;;
78346;SDS011;67803;41.330;69.282;2024-01-27T11:56:36;128.40;;;69.45;;
78346;SDS011;67803;41.330;69.282;2024-01-27T11:59:07;134.60;;;68.07;;
78346;SDS011;67803;41.330;69.282;2024-01-27T12:01:37;129.48;;;64.53;;
78346;SDS011;67803;41.330;69.282;2024-01-27T12:04:09;132.93;;;67.95;;
78346;SDS011;67803;41.330;69.282;2024-01-27T12:06:39;139.60;;;68.38;;
78346;SDS011;67803;41.330;69.282;2024-01-27T12:09:10;125.53;;;64.38;;
78346;SDS011;67803;41.330;69.282;2024-01-27T12:11:42;127.25;;;62.47;;
78346;SDS011;67803;41.330;69.282;2024-01-27T12:14:13;123.53;;;62.00;;
78346;SDS011;67803;41.330;69.282;2024-01-27T12:16:44;124.05;;;64.22;;
78346;SDS011;67803;41.330;69.282;2024-01-27T12:19:14;130.10;;;64.97;;
78346;SDS011;67803;41.330;69.282;2024-01-27T12:21:48;129.80;;;66.40;;
78346;SDS011;67803;41.330;69.282;2024-01-27T12:24:19;130.43;;;62.05;;
78346;SDS011;67803;41.330;69.282;2024-01-27T12:26:49;121.60;;;59.30;;
78346;SDS011;67803;41.330;69.282;2024-01-27T12:29:20;125.90;;;60.80;;
78346;SDS011;67803;41.330;69.282;2024-01-27T12:31:51;120.63;;;60.78;;
78346;SDS011;67803;41.330;69.282;2024-01-27T12:34:22;124.18;;;62.47;;
78346;SDS011;67803;41.330;69.282;2024-01-27T12:36:52;105.35;;;50.47;;
78346;SDS011;67803;41.330;69.282;2024-01-27T12:39:23;95.15;;;45.80;;
78346;SDS011;67803;41.330;69.282;2024-01-27T12:41:54;96.68;;;45.65;;
78346;SDS011;67803;41.330;69.282;2024-01-27T12:44:24;100.68;;;47.92;;
78346;SDS011;67803;41.330;69.282;2024-01-27T12:46:55;95.40;;;45.78;;
78346;SDS011;67803;41.330;69.282;2024-01-27T12:49:27;96.93;;;43.80;;
78346;SDS011;67803;41.330;69.282;2024-01-27T12:51:57;93.65;;;44.97;;
78346;SDS011;67803;41.330;69.282;2024-01-27T12:54:28;86.25;;;42.88;;
78346;SDS011;67803;41.330;69.282;2024-01-27T12:56:59;83.65;;;38.97;;
78346;SDS011;67803;41.330;69.282;2024-01-27T12:59:31;78.68;;;37.80;;
78346;SDS011;67803;41.330;69.282;2024-01-27T13:02:02;69.00;;;34.47;;
78346;SDS011;67803;41.330;69.282;2024-01-27T13:04:32;66.80;;;36.08;;
78346;SDS011;67803;41.330;69.282;2024-01-27T13:07:03;71.18;;;34.20;;
78346;SDS011;67803;41.330;69.282;2024-01-27T13:09:34;63.70;;;32.13;;
78346;SDS011;67803;41.330;69.282;2024-01-27T13:12:05;71.93;;;33.53;;
78346;SDS011;67803;41.330;69.282;2024-01-27T13:14:35;67.22;;;32.30;;
78346;SDS011;67803;41.330;69.282;2024-01-27T13:17:06;69.63;;;32.80;;
78346;SDS011;67803;41.330;69.282;2024-01-27T13:19:37;53.28;;;30.65;;
78346;SDS011;67803;41.330;69.282;2024-01-27T13:22:08;60.92;;;27.38;;
78346;SDS011;67803;41.330;69.282;2024-01-27T13:24:38;52.10;;;26.60;;
78346;SDS011;67803;41.330;69.282;2024-01-27T13:27:09;51.13;;;25.67;;
78346;SDS011;67803;41.330;69.282;2024-01-27T13:29:39;46.42;;;23.90;;
78346;SDS011;67803;41.330;69.282;2024-01-27T13:32:10;48.95;;;23.75;;
78346;SDS011;67803;41.330;69.282;2024-01-27T13:34:40;47.10;;;22.45;;
78346;SDS011;67803;41.330;69.282;2024-01-27T13:37:11;39.38;;;20.98;;
78346;SDS011;67803;41.330;69.282;2024-01-27T13:39:42;43.17;;;22.77;;
78346;SDS011;67803;41.330;69.282;2024-01-27T13:42:12;48.95;;;24.05;;
78346;SDS011;67803;41.330;69.282;2024-01-27T13:44:43;47.72;;;24.33;;
78346;SDS011;67803;41.330;69.282;2024-01-27T13:47:13;45.83;;;23.77;;
78346;SDS011;67803;41.330;69.282;2024-01-27T13:49:44;48.08;;;23.95;;
78346;SDS011;67803;41.330;69.282;2024-01-27T13:52:15;45.75;;;24.17;;
78346;SDS011;67803;41.330;69.282;2024-01-27T13:54:45;72.18;;;33.13;;
78346;SDS011;67803;41.330;69.282;2024-01-27T13:57:16;58.58;;;30.80;;
78346;SDS011;67803;41.330;69.282;2024-01-27T13:59:46;65.50;;;33.78;;
78346;SDS011;67803;41.330;69.282;2024-01-27T14:02:17;79.22;;;40.85;;
78346;SDS011;67803;41.330;69.282;2024-01-27T14:04:48;92.07;;;45.20;;
78346;SDS011;67803;41.330;69.282;2024-01-27T14:07:18;97.47;;;48.15;;
78346;SDS011;67803;41.330;69.282;2024-01-27T14:09:49;103.07;;;52.80;;
78346;SDS011;67803;41.330;69.282;2024-01-27T14:12:20;123.18;;;60.65;;
78346;SDS011;67803;41.330;69.282;2024-01-27T14:14:50;123.95;;;62.33;;
78346;SDS011;67803;41.330;69.282;2024-01-27T14:17:21;129.80;;;63.08;;
78346;SDS011;67803;41.330;69.282;2024-01-27T14:19:52;130.15;;;63.65;;
78346;SDS011;67803;41.330;69.282;2024-01-27T14:22:23;125.40;;;61.28;;
78346;SDS011;67803;41.330;69.282;2024-01-27T14:24:54;136.57;;;66.43;;